Hazelwood, Washington
Current Conditions -  °F | °C
As of 11:53 PM on Sunday 21 Dec 2014 (Local Time) from KRNT Reporting Station
Overcast Overcast  
Wind Chill: 52°   Ceiling: 1700
Heat Index: 52°   Visibility: 8mi
Dew Point: 46°   Wind: 0mph
Humidity: 80%   Direction: NA
Pressure: 30.11"   Gusts: NA
Location:  47.5152°N, 122.184°W
Report Text: KRNT 220753Z AUTO 00000KT 8SM OVC017 11/08 A3011 RMK AO2 SLP202 T01110078 401330106 $
Loading
Personal Weather Stations






























Interactive Weather Map New forecast layout! Learn more

10-Day Weather Forecast

Advertisements
Track Severe Weather on mobile